Date,TemperatureHighF,TemperatureAvgF,TemperatureLowF,DewpointHighF,DewpointAvgF,DewpointLowF,HumidityHigh,HumidityAvg,HumidityLow,PressureMaxIn,PressureMinIn,WindSpeedMaxMPH,WindSpeedAvgMPH,GustSpeedMaxMPH,PrecipitationSumIn
2013-1-1,43.0,38.4,35.6,40.1,36.3,33.5,95,92,88,29.92,29.29,5,1,5,0.10
2013-1-2,50.8,44.9,37.6,49.6,43.5,35.5,96,95,92,30.05,29.91,6,1,6,0.27
2013-1-3,51.8,50.2,48.6,49.6,48.2,46.3,96,93,89,30.41,30.04,7,2,7,0.08
2013-1-4,50.4,48.8,47.3,48.3,47.1,45.7,96,94,89,30.46,30.40,5,1,5,0.02
2013-1-5,50.0,48.5,44.5,48.0,46.5,42.3,95,93,90,30.44,30.26,6,0,6,0.12
2013-1-6,49.0,45.3,39.4,46.7,43.5,37.5,95,93,91,30.42,30.18,1,0,1,0.14
2013-1-7,49.3,48.0,46.8,48.3,46.9,45.2,96,96,94,30.17,29.97,2,0,2,0.65
2013-1-8,50.8,47.1,41.0,49.6,45.5,39.1,96,94,90,30.15,29.94,4,0,4,0.44
2013-1-9,45.5,40.6,36.0,43.4,38.8,34.4,95,93,90,30.14,30.04,3,0,3,0.01
2013-1-10,38.5,36.4,32.9,37.2,35.0,31.2,96,95,93,30.03,29.93,0,0,0,0.00
2013-1-11,42.8,39.1,36.0,41.5,37.5,34.1,96,94,90,29.99,29.93,1,0,1,0.02
2013-1-12,40.7,37.8,33.8,35.9,34.1,31.2,92,87,80,30.10,29.91,4,1,4,0.00
2013-1-13,36.5,35.2,33.8,34.9,33.0,31.5,94,92,86,30.11,29.95,2,0,2,0.16
2013-1-14,38.5,35.4,31.3,36.4,32.9,28.1,95,91,77,29.96,29.72,6,0,6,0.14
2013-1-15,36.7,32.7,27.4,33.1,29.8,24.8,92,89,84,29.89,29.79,3,0,3,0.00
2013-1-16,34.2,31.6,26.8,28.5,27.0,24.6,91,83,73,29.96,29.81,2,0,2,0.00
2013-1-17,37.4,35.1,33.5,29.6,27.2,23.4,81,73,59,29.96,29.76,7,2,7,0.00
2013-1-18,35.1,33.6,31.7,29.6,26.3,22.9,86,75,65,29.76,29.50,9,3,9,0.00
2013-1-19,37.4,34.7,32.6,31.8,30.0,27.8,87,83,77,29.71,29.55,8,2,8,0.00
2013-1-20,35.1,34.3,33.5,30.2,28.8,27.4,84,81,76,29.68,29.52,6,1,6,0.00
2013-1-21,35.6,34.7,34.0,32.6,31.4,28.6,92,88,80,29.52,29.44,8,3,8,0.10
2013-1-22,37.1,35.6,34.4,33.2,31.7,30.1,91,86,79,29.81,29.47,8,2,9,0.02
2013-1-23,37.1,35.8,34.2,33.1,31.3,29.2,88,84,76,29.94,29.80,4,1,4,0.00
2013-1-24,40.0,36.2,34.6,33.1,31.6,29.7,89,83,71,30.03,29.94,3,1,3,0.02
2013-1-25,36.2,34.8,33.7,33.4,32.0,30.4,94,89,83,29.94,29.37,3,0,3,0.27
2013-1-26,41.8,38.6,32.6,39.3,36.1,30.8,95,91,87,29.54,29.19,1,0,2,0.37
2013-1-27,44.6,40.1,37.1,43.6,37.9,35.2,96,92,87,29.21,28.80,5,1,5,0.96
2013-1-28,44.8,41.4,38.3,43.5,39.2,35.6,95,92,84,29.31,28.87,5,1,5,0.99
2013-1-29,50.8,45.2,43.0,49.6,42.3,37.9,96,90,75,29.32,28.93,10,1,10,0.39
2013-1-30,44.6,42.7,40.1,40.3,38.2,35.9,93,84,76,29.66,29.11,6,0,6,0.18
2013-1-31,44.3,41.4,37.8,41.3,38.5,35.6,94,90,85,29.64,29.17,6,1,6,0.95
2013-2-1,42.8,39.5,34.7,41.2,35.2,28.2,94,85,71,29.81,29.34,9,1,9,0.37
2013-2-2,40.0,34.6,28.8,32.9,29.4,24.6,87,81,74,30.17,29.81,6,0,6,0.00
2013-2-3,47.5,43.7,35.8,46.2,40.5,32.2,95,89,82,30.02,29.49,8,1,8,0.32
2013-2-4,43.6,38.7,33.8,39.6,35.5,30.9,90,88,84,29.56,29.32,9,3,10,0.27
2013-2-5,43.6,37.8,32.0,39.6,34.1,29.8,94,87,74,29.55,29.05,12,2,12,0.17
2013-2-6,38.0,37.1,36.2,29.3,29.0,28.4,74,72,70,29.94,29.84,9,4,9,0.01
2013-2-9,39.2,38.5,37.8,36.8,35.9,35.1,91,90,90,29.85,29.78,4,1,7,0.01
2013-2-10,38.7,36.9,34.9,35.8,34.3,32.8,92,90,88,29.78,29.37,7,2,7,0.23
2013-2-11,40.1,37.5,34.7,35.3,31.8,28.4,91,80,69,29.92,29.45,9,2,9,0.01
2013-2-12,38.7,36.2,34.7,31.8,30.0,28.7,82,78,71,30.06,29.92,5,1,6,0.00
2013-2-13,40.5,34.9,32.2,39.2,32.3,28.4,95,90,80,30.04,29.50,4,0,4,0.98
2013-2-14,46.8,42.3,39.6,44.5,40.4,38.0,95,93,87,29.81,29.52,4,0,4,0.25
2013-2-15,47.5,42.0,35.3,41.9,38.7,32.6,93,88,77,30.10,29.81,4,0,4,0.00
2013-2-16,46.1,41.5,34.9,44.2,39.3,32.5,94,92,90,30.10,30.06,1,0,1,0.01
2013-2-17,48.4,42.3,31.5,41.7,37.6,28.5,89,83,71,30.09,30.04,5,1,5,0.01
2013-2-18,44.3,34.0,27.9,36.8,30.0,25.4,91,85,72,30.12,30.06,4,0,4,0.00
2013-2-19,44.6,35.4,25.2,37.9,31.4,22.6,92,86,71,30.12,30.07,8,1,8,0.00
2013-2-20,42.1,39.5,33.1,38.4,35.1,27.6,93,85,79,30.29,30.12,4,1,5,0.00
2013-2-21,38.9,34.7,31.0,29.6,27.2,25.7,82,74,66,30.30,30.25,5,1,6,0.00
2013-2-22,37.1,34.6,32.8,27.6,25.7,23.9,76,70,65,30.30,30.25,3,0,3,0.00
2013-2-23,41.2,34.9,31.9,30.9,28.1,25.7,82,76,58,30.38,30.24,4,0,4,0.00
2013-2-24,43.2,37.5,31.5,36.2,31.7,27.0,87,80,69,30.47,30.37,2,0,2,0.00
2013-2-25,45.0,36.7,28.6,39.2,31.5,25.2,90,81,71,30.63,30.47,5,1,5,0.00
2013-2-26,45.7,37.6,30.2,36.6,32.0,26.1,92,80,64,30.69,30.60,7,2,7,0.00
2013-2-27,45.4,34.5,29.2,41.4,31.7,26.7,93,89,84,30.69,30.57,1,0,1,0.00
2013-2-28,46.4,37.1,29.9,41.9,34.4,26.8,94,90,83,30.58,30.49,2,0,2,0.00
2013-3-1,49.7,40.9,31.3,43.4,35.0,27.1,90,80,65,30.53,30.43,4,0,4,0.00
2013-3-2,55.8,43.3,29.2,46.3,37.1,25.5,90,79,66,30.43,30.24,4,0,6,0.00
2013-3-3,48.1,44.3,41.2,43.0,39.2,36.1,89,82,77,30.25,30.08,4,0,4,0.00
2013-3-4,47.0,41.6,33.8,37.5,35.1,29.0,84,78,66,30.08,29.73,3,0,3,0.00
2013-3-5,48.8,39.1,30.1,39.1,33.1,26.6,89,79,64,29.73,29.62,6,1,6,0.00
2013-3-6,42.1,39.9,37.4,37.8,35.7,32.5,90,85,81,29.69,29.63,8,3,11,0.01
2013-3-7,45.5,41.9,40.0,41.7,38.8,36.8,93,89,85,29.63,29.49,11,4,11,0.07
2013-3-8,40.7,39.7,38.7,37.8,36.6,35.8,92,89,86,29.69,29.52,11,4,12,0.02
2013-3-9,39.2,38.0,35.6,36.5,33.7,28.1,90,85,73,29.91,29.69,9,3,12,0.04
2013-3-10,38.7,33.4,27.4,32.0,27.3,22.2,87,78,70,30.12,29.89,8,2,8,0.02
2013-3-11,36.0,28.8,25.7,25.0,20.6,18.8,85,72,57,30.15,30.09,4,1,4,0.03
2013-3-12,45.2,35.5,22.9,32.2,25.9,17.0,83,68,57,30.13,29.89,5,1,5,0.00
2013-3-13,47.0,36.2,26.8,34.7,24.9,19.0,80,65,45,29.99,29.86,5,1,5,0.00
2013-3-14,42.3,35.1,26.3,38.5,30.5,18.9,91,83,72,29.98,29.58,2,0,2,0.12
2013-3-15,44.6,39.7,33.5,41.2,36.9,30.2,93,90,85,29.57,29.35,4,0,4,0.24
2013-3-16,39.4,35.6,32.0,35.8,33.2,29.8,94,91,86,29.37,29.19,8,1,8,0.27
2013-3-17,42.8,38.0,33.5,38.7,35.2,31.3,94,90,85,29.25,29.11,6,1,6,0.17
2013-3-18,39.6,37.0,32.9,38.0,33.8,28.8,94,88,83,29.54,29.24,8,2,8,0.20
2013-3-19,37.3,35.0,33.1,33.1,31.2,29.0,93,86,80,29.64,29.52,9,3,9,0.12
2013-3-20,40.3,36.2,32.9,34.2,31.3,27.5,92,83,69,30.04,29.63,7,2,7,0.01
2013-3-21,40.0,35.3,31.3,32.3,28.5,26.8,88,76,63,30.07,29.97,11,3,11,0.00
2013-3-22,36.0,34.3,32.2,31.0,29.8,27.2,93,84,71,30.00,29.90,14,5,14,0.03
2013-3-23,34.4,33.5,32.2,30.3,27.5,23.9,92,79,68,30.17,29.98,13,5,13,0.03
2013-3-24,36.7,34.5,33.1,27.7,25.5,23.6,74,70,62,30.28,30.14,14,5,15,0.02
2013-3-25,38.5,34.9,33.1,29.6,27.3,24.7,81,74,65,30.28,30.23,11,3,11,0.00
2013-3-26,38.7,34.4,32.2,31.1,27.7,24.4,86,77,65,30.25,30.14,10,2,10,0.01
2013-3-27,40.1,34.4,31.5,32.0,27.9,24.0,86,77,60,30.15,30.07,6,1,6,0.01
2013-3-28,40.5,35.7,32.4,31.3,27.7,24.8,87,73,58,30.10,30.03,8,2,8,0.03
2013-3-29,43.0,36.4,32.9,32.8,28.2,24.2,82,73,53,30.03,29.91,9,1,9,0.00
2013-3-30,49.5,36.3,27.7,38.2,26.9,22.6,84,69,51,30.01,29.94,6,1,6,0.00
2013-3-31,42.5,35.4,26.3,32.5,24.8,21.0,82,66,49,30.01,29.96,5,1,5,0.00
2013-4-1,42.8,36.4,32.0,27.7,25.3,23.7,74,64,51,30.08,29.98,8,2,8,0.00
2013-4-2,45.7,38.6,32.4,33.1,27.8,24.4,80,65,47,30.24,30.07,5,1,5,0.00
2013-4-3,54.0,38.4,26.3,41.1,28.3,21.8,87,68,51,30.29,30.24,5,1,5,0.00
2013-4-4,47.5,40.6,34.9,34.0,30.1,27.3,77,67,49,30.28,30.22,5,1,5,0.00
2013-4-5,47.3,40.2,31.9,32.9,28.9,23.4,81,65,48,30.26,30.21,6,1,6,0.00
2013-4-6,54.7,39.5,24.8,40.9,29.4,19.6,82,68,54,30.27,30.18,8,1,8,0.00
2013-4-7,47.2,40.0,36.0,37.2,33.3,29.4,85,77,65,30.19,29.97,8,1,8,0.00
2013-4-8,43.6,38.8,35.3,33.3,30.1,25.4,85,71,53,29.97,29.73,7,2,7,0.00
2013-4-9,46.1,39.6,33.8,33.5,27.8,19.8,81,63,37,29.73,29.65,9,2,9,0.00
2013-4-10,45.5,40.3,33.7,37.5,34.5,29.0,87,80,72,29.70,29.58,8,2,8,0.00
2013-4-11,46.3,41.2,38.0,37.3,35.3,33.1,85,79,69,29.58,29.40,8,2,8,0.00
2013-4-12,44.3,40.4,36.5,39.8,36.5,33.1,89,86,79,29.65,29.36,8,1,8,0.13
2013-4-13,54.0,46.5,39.4,47.0,39.6,36.4,92,78,52,29.73,29.41,8,2,8,0.06
2013-4-14,55.1,52.0,48.8,49.4,47.4,45.2,92,84,73,29.47,29.37,8,2,8,0.50
2013-4-15,58.1,51.9,46.6,49.2,45.4,43.2,90,79,67,29.72,29.46,6,2,6,0.11
2013-4-16,52.2,48.2,44.5,46.5,42.2,37.0,91,80,66,29.84,29.34,9,3,9,0.28
2013-4-17,51.7,45.9,38.9,48.8,42.3,34.2,94,87,75,29.82,29.09,7,2,10,1.02
2013-4-18,53.1,47.8,42.1,45.9,42.8,37.0,94,83,72,29.90,29.07,9,2,9,0.11
2013-4-19,65.2,48.0,35.6,48.4,36.7,31.5,86,67,45,30.42,29.91,4,1,4,0.00
2013-4-20,58.1,49.1,39.2,46.7,38.7,33.9,85,68,52,30.41,30.13,5,1,5,0.00
2013-4-21,54.9,47.2,43.0,45.5,41.5,38.0,89,81,62,30.12,29.84,5,1,6,0.19
2013-4-22,52.0,46.7,42.8,47.6,42.1,38.2,91,84,72,29.83,29.58,8,2,8,0.01
2013-4-23,55.8,49.6,45.4,45.9,41.8,39.3,88,75,59,30.03,29.71,9,2,10,0.01
2013-4-24,55.4,48.4,43.2,47.3,40.8,34.5,93,76,51,30.20,29.86,7,1,9,0.53
2013-4-25,51.1,44.3,40.7,43.9,38.2,34.7,86,79,71,30.19,30.01,6,1,6,0.12
2013-4-26,52.9,42.8,34.4,41.7,35.8,30.2,88,77,56,30.02,29.84,8,2,11,0.10
2013-4-27,56.0,45.5,37.6,35.6,32.5,30.1,83,61,44,30.12,29.95,6,2,6,0.00
2013-4-28,50.8,44.7,39.2,44.8,39.1,34.5,92,81,65,29.95,29.59,8,2,9,0.21
2013-4-29,55.1,45.5,39.4,41.5,37.7,33.9,88,75,51,30.08,29.58,11,2,11,0.05
2013-4-30,61.9,46.9,31.3,45.9,34.1,27.4,87,64,38,30.28,30.09,6,1,6,0.00
2013-5-1,55.6,47.5,37.1,44.5,37.4,29.0,88,69,49,30.25,30.07,7,2,7,0.03
2013-5-2,55.6,44.0,30.4,44.4,36.2,25.3,88,75,55,30.25,29.98,4,1,4,0.06
2013-5-3,51.5,48.5,42.1,48.3,45.4,38.5,92,89,86,29.98,29.64,6,1,6,0.61
2013-5-4,54.5,45.7,38.3,43.5,39.6,34.7,87,80,62,29.87,29.72,5,1,5,0.00
2013-5-5,62.6,52.8,46.1,53.5,47.8,41.9,88,83,69,30.02,29.86,6,1,6,0.01
2013-5-6,54.2,51.7,49.9,50.5,48.0,45.9,90,87,85,30.04,29.97,4,0,4,0.04
2013-5-7,68.0,56.3,38.7,52.3,45.5,36.0,91,69,49,30.05,29.84,5,1,5,0.00
2013-5-8,58.3,54.1,47.5,51.9,45.4,37.9,89,73,51,29.84,29.45,10,3,10,0.07
2013-5-9,52.2,47.9,44.1,44.1,41.6,39.2,90,79,65,29.51,29.32,10,2,10,0.30
2013-5-10,60.8,47.6,39.8,49.5,42.7,36.2,89,83,64,29.61,29.37,5,1,5,0.10
2013-5-11,50.4,46.3,41.9,46.2,42.6,39.0,93,87,79,29.74,29.46,5,1,5,0.24
2013-5-12,50.6,46.7,40.7,48.0,43.0,37.5,91,87,81,29.77,29.57,5,1,5,0.19
2013-5-13,50.0,42.5,34.9,43.9,38.9,32.8,93,87,76,29.62,29.41,6,2,9,0.55
2013-5-14,54.0,45.1,39.6,46.6,40.5,35.1,91,84,69,29.41,29.33,8,2,8,0.16
2013-5-15,56.0,47.2,36.4,44.4,37.7,32.8,90,71,52,29.41,29.29,8,2,8,0.01
2013-5-16,55.6,47.2,37.4,43.1,38.0,32.8,86,71,51,29.69,29.38,4,1,4,0.01
2013-5-17,64.8,52.6,38.5,50.8,38.2,32.6,83,60,40,29.86,29.67,6,1,7,0.00
2013-5-18,59.0,51.0,47.9,52.6,44.8,40.4,88,80,68,29.85,29.72,6,1,6,0.09
2013-6-23,60.1,59.1,58.5,49.1,48.5,48.1,69,68,66,29.73,29.70,5,3,5,0.00